VOI5594 MMMY-MMLO
Flight info
| Callsign | VOI5594 |
|---|---|
| Flight time | N/A |
| Altitude | 38000 |
| Route | URTOB1A URTOB UJ11 BEROS UJ31 SLP UJ40 LIBOL LIBOL1A |
| Aircraft | A20N/M-SDE2E3FGHIRWXY/LB1 |
Departure
| Time | N/A |
|---|---|
| Airport | Monterrey International Airport (MMMY) |
Arrival
| Time | 2026-04-30 17:55 |
|---|---|
| Airport | Guanajuato International Airport (MMLO) |
| Time | Latitude | Longitude | Altitude | Speed | Heading |
|---|---|---|---|---|---|
| 2026-04-30 17:39 | 21.89993 | -101.08777 | 26741 ft | 431 kts | 204° |
| 2026-04-30 17:41 | 21.67887 | -101.18510 | 20944 ft | 423 kts | 203° |
| 2026-04-30 17:42 | 21.62655 | -101.21166 | 20014 ft | 405 kts | 214° |
| 2026-04-30 17:42 | 21.56695 | -101.26945 | 18875 ft | 380 kts | 226° |
| 2026-04-30 17:43 | 21.52992 | -101.30931 | 17805 ft | 375 kts | 225° |
| 2026-04-30 17:44 | 21.47520 | -101.36811 | 16153 ft | 366 kts | 225° |
| 2026-04-30 17:44 | 21.42214 | -101.42506 | 14774 ft | 359 kts | 225° |
| 2026-04-30 17:46 | 21.33456 | -101.51890 | 12569 ft | 338 kts | 225° |
| 2026-04-30 17:47 | 21.27585 | -101.58172 | 11955 ft | 266 kts | 225° |
| 2026-04-30 17:48 | 21.22672 | -101.63418 | 10808 ft | 244 kts | 225° |
| 2026-04-30 17:48 | 21.19036 | -101.67103 | 9870 ft | 239 kts | 206° |
| 2026-04-30 17:49 | 21.13760 | -101.64395 | 9588 ft | 214 kts | 127° |
| 2026-04-30 17:50 | 21.10387 | -101.60228 | 8313 ft | 175 kts | 134° |
| 2026-04-30 17:51 | 21.07984 | -101.57567 | 7879 ft | 157 kts | 136° |
| 2026-04-30 17:52 | 21.05667 | -101.55051 | 7543 ft | 163 kts | 135° |
| 2026-04-30 17:53 | 21.01854 | -101.50857 | 6402 ft | 153 kts | 135° |
| 2026-04-30 17:54 | 20.99394 | -101.48166 | 5972 ft | 51 kts | 134° |
| 2026-04-30 17:55 | 20.99047 | -101.47862 | 5973 ft | 5 kts | 157° |
| 2026-04-30 17:56 | 20.98888 | -101.47811 | 5971 ft | 3 kts | 165° |
| 2026-04-30 17:57 | 20.98761 | -101.47800 | 5971 ft | 7 kts | 197° |
| 2026-04-30 17:58 | 20.98673 | -101.47823 | 5972 ft | 1 kts | 225° |
| 2026-04-30 17:59 | 20.98657 | -101.47837 | 5973 ft | 0 kts | 224° |
| 2026-04-30 18:20 | 20.98658 | -101.47837 | 5989 ft | 0 kts | 224° |